sensor_id;sensor_type;location;lat;lon;timestamp;pressure;altitude;pressure_sealevel;temperature;humidity
12536;BME280;6334;48.696;2.114;2023-02-28T00:00:43;100891.66;;;2.24;56.18
12536;BME280;6334;48.696;2.114;2023-02-28T00:03:14;100893.33;;;2.32;55.74
12536;BME280;6334;48.696;2.114;2023-02-28T00:05:44;100897.28;;;2.18;56.35
12536;BME280;6334;48.696;2.114;2023-02-28T00:08:14;100897.78;;;2.19;56.46
12536;BME280;6334;48.696;2.114;2023-02-28T00:10:48;100902.69;;;2.09;56.95
12536;BME280;6334;48.696;2.114;2023-02-28T00:13:16;100903.60;;;1.89;57.22
12536;BME280;6334;48.696;2.114;2023-02-28T00:15:46;100895.15;;;1.63;58.28
12536;BME280;6334;48.696;2.114;2023-02-28T00:18:16;100902.67;;;1.90;57.87
12536;BME280;6334;48.696;2.114;2023-02-28T00:20:47;100904.12;;;1.94;57.33
12536;BME280;6334;48.696;2.114;2023-02-28T00:23:17;100897.13;;;2.16;56.66
12536;BME280;6334;48.696;2.114;2023-02-28T00:25:48;100901.89;;;1.87;58.28
12536;BME280;6334;48.696;2.114;2023-02-28T00:28:18;100896.83;;;2.06;56.85
12536;BME280;6334;48.696;2.114;2023-02-28T00:30:48;100901.66;;;2.08;56.83
12536;BME280;6334;48.696;2.114;2023-02-28T00:33:18;100902.84;;;1.75;58.67
12536;BME280;6334;48.696;2.114;2023-02-28T00:35:49;100907.34;;;1.92;57.57
12536;BME280;6334;48.696;2.114;2023-02-28T00:38:19;100918.45;;;2.11;56.73
12536;BME280;6334;48.696;2.114;2023-02-28T00:40:50;100916.14;;;1.86;58.04
12536;BME280;6334;48.696;2.114;2023-02-28T00:43:20;100922.76;;;1.95;57.63
12536;BME280;6334;48.696;2.114;2023-02-28T00:45:51;100930.55;;;1.94;58.04
12536;BME280;6334;48.696;2.114;2023-02-28T00:48:21;100930.61;;;1.80;58.10
12536;BME280;6334;48.696;2.114;2023-02-28T00:50:52;100917.19;;;2.01;57.24
12536;BME280;6334;48.696;2.114;2023-02-28T00:53:22;100929.07;;;2.06;57.36
12536;BME280;6334;48.696;2.114;2023-02-28T00:55:52;100927.05;;;1.97;57.60
12536;BME280;6334;48.696;2.114;2023-02-28T00:58:23;100923.45;;;1.89;58.11
12536;BME280;6334;48.696;2.114;2023-02-28T01:00:54;100925.80;;;1.77;57.81
12536;BME280;6334;48.696;2.114;2023-02-28T01:03:25;100920.98;;;1.86;58.04
12536;BME280;6334;48.696;2.114;2023-02-28T01:05:55;100927.56;;;1.85;57.65
12536;BME280;6334;48.696;2.114;2023-02-28T01:08:26;100933.31;;;1.67;58.62
12536;BME280;6334;48.696;2.114;2023-02-28T01:10:56;100931.02;;;1.96;57.02
12536;BME280;6334;48.696;2.114;2023-02-28T01:13:27;100932.40;;;2.00;56.84
12536;BME280;6334;48.696;2.114;2023-02-28T01:15:57;100934.63;;;1.85;57.50
12536;BME280;6334;48.696;2.114;2023-02-28T01:18:28;100934.22;;;1.80;57.61
12536;BME280;6334;48.696;2.114;2023-02-28T01:20:58;100940.09;;;1.56;58.54
12536;BME280;6334;48.696;2.114;2023-02-28T01:23:28;100927.39;;;1.63;58.32
12536;BME280;6334;48.696;2.114;2023-02-28T01:26:08;100933.62;;;1.42;59.16
12536;BME280;6334;48.696;2.114;2023-02-28T01:28:38;100940.50;;;1.58;58.30
12536;BME280;6334;48.696;2.114;2023-02-28T01:31:08;100934.16;;;1.79;57.65
12536;BME280;6334;48.696;2.114;2023-02-28T01:33:39;100935.86;;;1.53;58.64
12536;BME280;6334;48.696;2.114;2023-02-28T01:36:17;100923.70;;;1.59;58.17
12536;BME280;6334;48.696;2.114;2023-02-28T01:38:46;100932.55;;;1.76;57.49
12536;BME280;6334;48.696;2.114;2023-02-28T01:41:23;100931.91;;;1.74;57.66
12536;BME280;6334;48.696;2.114;2023-02-28T01:43:58;100926.84;;;1.83;57.78
12536;BME280;6334;48.696;2.114;2023-02-28T01:46:26;100923.51;;;1.45;58.62
12536;BME280;6334;48.696;2.114;2023-02-28T01:49:09;100922.80;;;1.54;57.90
12536;BME280;6334;48.696;2.114;2023-02-28T01:51:44;100925.58;;;1.60;58.06
12536;BME280;6334;48.696;2.114;2023-02-28T01:54:14;100927.36;;;1.64;57.57
12536;BME280;6334;48.696;2.114;2023-02-28T01:56:44;100925.89;;;1.64;58.18
12536;BME280;6334;48.696;2.114;2023-02-28T01:59:14;100927.05;;;1.73;57.27
12536;BME280;6334;48.696;2.114;2023-02-28T02:01:44;100927.19;;;1.49;57.70
12536;BME280;6334;48.696;2.114;2023-02-28T02:04:14;100921.41;;;1.57;57.25
12536;BME280;6334;48.696;2.114;2023-02-28T02:06:45;100924.41;;;1.45;57.54
12536;BME280;6334;48.696;2.114;2023-02-28T02:09:15;100916.88;;;1.46;57.71
12536;BME280;6334;48.696;2.114;2023-02-28T02:11:46;100916.25;;;1.42;57.60
12536;BME280;6334;48.696;2.114;2023-02-28T02:22:37;100918.73;;;1.53;57.17
12536;BME280;6334;48.696;2.114;2023-02-28T02:27:57;100911.93;;;1.36;57.43
12536;BME280;6334;48.696;2.114;2023-02-28T02:30:37;100908.64;;;1.20;58.48
12536;BME280;6334;48.696;2.114;2023-02-28T02:35:59;100906.57;;;1.01;58.55
12536;BME280;6334;48.696;2.114;2023-02-28T02:38:33;100906.03;;;1.47;56.79
12536;BME280;6334;48.696;2.114;2023-02-28T02:41:23;100906.16;;;1.42;56.51
12536;BME280;6334;48.696;2.114;2023-02-28T02:44:15;100903.27;;;1.26;56.99
12536;BME280;6334;48.696;2.114;2023-02-28T02:46:43;100902.47;;;1.44;56.49
12536;BME280;6334;48.696;2.114;2023-02-28T02:49:19;100905.53;;;1.20;57.41
12536;BME280;6334;48.696;2.114;2023-02-28T02:51:46;100901.17;;;1.33;57.10
12536;BME280;6334;48.696;2.114;2023-02-28T02:54:27;100904.39;;;1.39;56.66
12536;BME280;6334;48.696;2.114;2023-02-28T02:57:04;100892.45;;;1.31;56.45
12536;BME280;6334;48.696;2.114;2023-02-28T02:59:32;100899.05;;;1.40;56.61
12536;BME280;6334;48.696;2.114;2023-02-28T03:02:03;100897.19;;;1.45;56.61
12536;BME280;6334;48.696;2.114;2023-02-28T03:04:35;100898.13;;;1.40;57.06
12536;BME280;6334;48.696;2.114;2023-02-28T03:07:04;100898.37;;;1.40;56.91
12536;BME280;6334;48.696;2.114;2023-02-28T03:09:34;100895.84;;;1.23;57.19
12536;BME280;6334;48.696;2.114;2023-02-28T03:12:04;100898.70;;;1.28;56.99
12536;BME280;6334;48.696;2.114;2023-02-28T03:25:31;100899.89;;;1.16;57.16
12536;BME280;6334;48.696;2.114;2023-02-28T03:28:04;100897.88;;;1.16;56.91
12536;BME280;6334;48.696;2.114;2023-02-28T03:30:41;100902.80;;;1.21;56.91
12536;BME280;6334;48.696;2.114;2023-02-28T03:33:14;100903.02;;;0.90;57.61
12536;BME280;6334;48.696;2.114;2023-02-28T03:35:58;100891.20;;;0.93;57.24
12536;BME280;6334;48.696;2.114;2023-02-28T03:39:16;100896.89;;;1.21;56.77
12536;BME280;6334;48.696;2.114;2023-02-28T03:41:27;100899.61;;;1.17;56.50
12536;BME280;6334;48.696;2.114;2023-02-28T03:43:35;100898.50;;;1.16;56.36
12536;BME280;6334;48.696;2.114;2023-02-28T03:46:06;100899.28;;;1.23;56.36
12536;BME280;6334;48.696;2.114;2023-02-28T03:48:43;100905.09;;;1.19;56.35
12536;BME280;6334;48.696;2.114;2023-02-28T03:51:09;100901.35;;;1.20;56.24
12536;BME280;6334;48.696;2.114;2023-02-28T03:53:42;100900.88;;;1.05;56.90
12536;BME280;6334;48.696;2.114;2023-02-28T03:56:16;100902.17;;;1.16;56.41
12536;BME280;6334;48.696;2.114;2023-02-28T04:01:38;100901.12;;;1.16;56.29
12536;BME280;6334;48.696;2.114;2023-02-28T04:04:08;100906.20;;;0.81;57.27
12536;BME280;6334;48.696;2.114;2023-02-28T04:06:38;100900.75;;;1.07;56.65
12536;BME280;6334;48.696;2.114;2023-02-28T04:09:09;100895.61;;;0.89;56.60
12536;BME280;6334;48.696;2.114;2023-02-28T04:11:40;100903.39;;;0.91;56.90
12536;BME280;6334;48.696;2.114;2023-02-28T04:14:09;100911.49;;;0.88;57.24
12536;BME280;6334;48.696;2.114;2023-02-28T04:16:40;100911.37;;;0.78;57.61
12536;BME280;6334;48.696;2.114;2023-02-28T04:19:10;100906.81;;;0.96;56.99
12536;BME280;6334;48.696;2.114;2023-02-28T04:21:41;100903.05;;;0.90;56.92
12536;BME280;6334;48.696;2.114;2023-02-28T04:24:11;100909.61;;;1.03;56.64
12536;BME280;6334;48.696;2.114;2023-02-28T04:26:45;100906.72;;;0.66;57.14
12536;BME280;6334;48.696;2.114;2023-02-28T04:29:18;100913.42;;;0.82;57.08
12536;BME280;6334;48.696;2.114;2023-02-28T04:31:44;100921.23;;;0.73;57.14
12536;BME280;6334;48.696;2.114;2023-02-28T04:34:15;100916.67;;;0.95;56.91
12536;BME280;6334;48.696;2.114;2023-02-28T04:36:45;100917.95;;;0.58;57.64
12536;BME280;6334;48.696;2.114;2023-02-28T04:39:19;100922.92;;;0.82;56.68
12536;BME280;6334;48.696;2.114;2023-02-28T04:41:49;100926.02;;;0.91;56.36
12536;BME280;6334;48.696;2.114;2023-02-28T04:44:20;100929.22;;;0.79;56.76
12536;BME280;6334;48.696;2.114;2023-02-28T04:46:50;100930.48;;;0.73;56.56
12536;BME280;6334;48.696;2.114;2023-02-28T04:49:21;100930.95;;;0.84;56.96
12536;BME280;6334;48.696;2.114;2023-02-28T04:51:51;100932.45;;;0.53;57.37
12536;BME280;6334;48.696;2.114;2023-02-28T04:54:22;100936.77;;;0.68;57.37
12536;BME280;6334;48.696;2.114;2023-02-28T04:56:52;100942.91;;;0.74;56.58
12536;BME280;6334;48.696;2.114;2023-02-28T04:59:23;100945.48;;;0.48;57.56
12536;BME280;6334;48.696;2.114;2023-02-28T05:01:53;100947.03;;;0.69;56.96
12536;BME280;6334;48.696;2.114;2023-02-28T05:04:24;100947.48;;;0.81;56.71
12536;BME280;6334;48.696;2.114;2023-02-28T05:06:54;100950.02;;;0.75;57.13
12536;BME280;6334;48.696;2.114;2023-02-28T05:09:25;100954.31;;;0.67;56.90
12536;BME280;6334;48.696;2.114;2023-02-28T05:11:55;100953.58;;;0.46;57.38
12536;BME280;6334;48.696;2.114;2023-02-28T05:14:25;100955.95;;;0.59;57.25
12536;BME280;6334;48.696;2.114;2023-02-28T05:16:56;100959.61;;;0.68;56.92
12536;BME280;6334;48.696;2.114;2023-02-28T05:19:27;100966.02;;;0.15;58.10
12536;BME280;6334;48.696;2.114;2023-02-28T05:21:57;100950.41;;;0.62;57.07
12536;BME280;6334;48.696;2.114;2023-02-28T05:24:28;100959.95;;;0.62;56.51
12536;BME280;6334;48.696;2.114;2023-02-28T05:26:58;100964.70;;;0.53;57.17
12536;BME280;6334;48.696;2.114;2023-02-28T05:29:28;100965.75;;;0.64;57.27
12536;BME280;6334;48.696;2.114;2023-02-28T05:31:59;100975.05;;;0.56;57.25
12536;BME280;6334;48.696;2.114;2023-02-28T05:34:29;100969.32;;;0.56;56.66
12536;BME280;6334;48.696;2.114;2023-02-28T05:37:00;100964.64;;;0.65;57.21
12536;BME280;6334;48.696;2.114;2023-02-28T05:39:30;100968.31;;;0.84;56.17
12536;BME280;6334;48.696;2.114;2023-02-28T05:42:02;100964.53;;;0.62;56.88
12536;BME280;6334;48.696;2.114;2023-02-28T05:44:32;100964.59;;;0.85;57.01
12536;BME280;6334;48.696;2.114;2023-02-28T05:47:03;100966.17;;;0.82;56.76
12536;BME280;6334;48.696;2.114;2023-02-28T05:49:33;100967.19;;;0.60;57.69
12536;BME280;6334;48.696;2.114;2023-02-28T05:52:04;100963.97;;;0.70;57.13
12536;BME280;6334;48.696;2.114;2023-02-28T05:54:34;100962.25;;;0.65;57.39
12536;BME280;6334;48.696;2.114;2023-02-28T05:57:05;100964.22;;;0.62;57.57
12536;BME280;6334;48.696;2.114;2023-02-28T05:59:35;100966.82;;;0.66;56.54
12536;BME280;6334;48.696;2.114;2023-02-28T06:02:06;100962.27;;;0.52;57.10
12536;BME280;6334;48.696;2.114;2023-02-28T06:04:36;100971.08;;;0.78;56.67
12536;BME280;6334;48.696;2.114;2023-02-28T06:07:07;100980.91;;;0.55;56.71
12536;BME280;6334;48.696;2.114;2023-02-28T06:09:37;100977.39;;;0.55;57.55
12536;BME280;6334;48.696;2.114;2023-02-28T06:12:07;100976.03;;;0.50;57.80
12536;BME280;6334;48.696;2.114;2023-02-28T06:14:38;100968.00;;;0.44;57.78
12536;BME280;6334;48.696;2.114;2023-02-28T06:17:08;100981.48;;;0.60;57.78
12536;BME280;6334;48.696;2.114;2023-02-28T06:19:38;100982.99;;;0.37;58.07
12536;BME280;6334;48.696;2.114;2023-02-28T06:22:08;100981.24;;;0.27;58.37
12536;BME280;6334;48.696;2.114;2023-02-28T06:24:39;100984.99;;;0.21;58.78
12536;BME280;6334;48.696;2.114;2023-02-28T06:27:09;100983.64;;;0.32;58.75
12536;BME280;6334;48.696;2.114;2023-02-28T06:29:40;100987.98;;;0.45;58.47
12536;BME280;6334;48.696;2.114;2023-02-28T06:32:10;100988.07;;;0.37;57.99
12536;BME280;6334;48.696;2.114;2023-02-28T06:34:41;100986.92;;;0.09;59.41
12536;BME280;6334;48.696;2.114;2023-02-28T06:37:11;100983.45;;;0.27;58.89
12536;BME280;6334;48.696;2.114;2023-02-28T06:39:42;100979.99;;;0.28;58.92
12536;BME280;6334;48.696;2.114;2023-02-28T06:42:12;100979.80;;;0.30;58.97
12536;BME280;6334;48.696;2.114;2023-02-28T06:44:43;100982.43;;;0.03;60.27
12536;BME280;6334;48.696;2.114;2023-02-28T06:47:13;100980.17;;;0.18;60.09
12536;BME280;6334;48.696;2.114;2023-02-28T06:49:43;100988.05;;;0.35;59.59
12536;BME280;6334;48.696;2.114;2023-02-28T06:52:14;100989.75;;;0.27;60.03
12536;BME280;6334;48.696;2.114;2023-02-28T06:54:45;100989.98;;;0.28;60.11
12536;BME280;6334;48.696;2.114;2023-02-28T06:57:15;100989.01;;;0.38;60.04
12536;BME280;6334;48.696;2.114;2023-02-28T06:59:45;100990.60;;;0.54;59.58
12536;BME280;6334;48.696;2.114;2023-02-28T07:02:16;100992.25;;;0.47;60.36
12536;BME280;6334;48.696;2.114;2023-02-28T07:04:46;100989.44;;;0.38;60.29
12536;BME280;6334;48.696;2.114;2023-02-28T07:07:17;100988.88;;;0.39;60.51
12536;BME280;6334;48.696;2.114;2023-02-28T07:09:47;100996.21;;;0.31;61.18
12536;BME280;6334;48.696;2.114;2023-02-28T07:12:18;100993.37;;;0.31;60.50
12536;BME280;6334;48.696;2.114;2023-02-28T07:14:47;100993.45;;;0.32;61.16
12536;BME280;6334;48.696;2.114;2023-02-28T07:17:19;100993.45;;;0.37;61.26
12536;BME280;6334;48.696;2.114;2023-02-28T07:19:56;100993.71;;;0.32;61.21
12536;BME280;6334;48.696;2.114;2023-02-28T07:22:26;100999.42;;;0.37;61.26
12536;BME280;6334;48.696;2.114;2023-02-28T07:24:56;100992.39;;;0.24;62.55
12536;BME280;6334;48.696;2.114;2023-02-28T07:27:27;100991.31;;;0.33;61.88
12536;BME280;6334;48.696;2.114;2023-02-28T07:29:57;100993.77;;;0.49;61.61
12536;BME280;6334;48.696;2.114;2023-02-28T07:32:28;100995.56;;;0.29;62.49
12536;BME280;6334;48.696;2.114;2023-02-28T07:34:58;100996.75;;;0.51;61.42
12536;BME280;6334;48.696;2.114;2023-02-28T07:37:29;100993.92;;;0.23;62.40
12536;BME280;6334;48.696;2.114;2023-02-28T07:39:59;101013.09;;;0.51;62.11
12536;BME280;6334;48.696;2.114;2023-02-28T07:42:30;101013.36;;;0.65;62.33
12536;BME280;6334;48.696;2.114;2023-02-28T07:45:01;101013.93;;;0.48;62.36
12536;BME280;6334;48.696;2.114;2023-02-28T07:47:31;101008.17;;;0.66;61.91
12536;BME280;6334;48.696;2.114;2023-02-28T07:50:01;101013.11;;;0.84;61.19
12536;BME280;6334;48.696;2.114;2023-02-28T07:52:32;101016.61;;;0.56;62.42
12536;BME280;6334;48.696;2.114;2023-02-28T07:55:02;101004.36;;;0.73;61.67
12536;BME280;6334;48.696;2.114;2023-02-28T07:57:33;101010.72;;;0.78;61.88
12536;BME280;6334;48.696;2.114;2023-02-28T08:00:04;101006.61;;;0.89;61.19
12536;BME280;6334;48.696;2.114;2023-02-28T08:02:34;101016.78;;;0.93;61.32
12536;BME280;6334;48.696;2.114;2023-02-28T08:05:05;101015.48;;;0.82;61.99
12536;BME280;6334;48.696;2.114;2023-02-28T08:07:35;101013.84;;;0.78;62.36
12536;BME280;6334;48.696;2.114;2023-02-28T08:10:05;101016.06;;;0.96;61.30
12536;BME280;6334;48.696;2.114;2023-02-28T08:12:36;101013.91;;;0.79;62.21
12536;BME280;6334;48.696;2.114;2023-02-28T08:15:06;100990.52;;;0.75;61.54
12536;BME280;6334;48.696;2.114;2023-02-28T08:17:37;101017.33;;;1.20;61.21
12536;BME280;6334;48.696;2.114;2023-02-28T08:20:07;101019.87;;;1.06;61.55
12536;BME280;6334;48.696;2.114;2023-02-28T08:22:38;101018.06;;;1.10;61.22
12536;BME280;6334;48.696;2.114;2023-02-28T08:25:08;101017.57;;;1.20;61.69
12536;BME280;6334;48.696;2.114;2023-02-28T08:27:39;101023.96;;;1.12;61.43
12536;BME280;6334;48.696;2.114;2023-02-28T08:30:12;101024.83;;;1.29;61.04
12536;BME280;6334;48.696;2.114;2023-02-28T08:32:42;101028.66;;;1.34;60.71
12536;BME280;6334;48.696;2.114;2023-02-28T08:35:13;101033.69;;;1.11;61.52
12536;BME280;6334;48.696;2.114;2023-02-28T08:37:43;101031.21;;;0.95;62.12
12536;BME280;6334;48.696;2.114;2023-02-28T08:40:14;101031.53;;;1.32;60.88
12536;BME280;6334;48.696;2.114;2023-02-28T08:42:45;101033.84;;;1.34;60.84
12536;BME280;6334;48.696;2.114;2023-02-28T08:45:15;101029.83;;;1.48;60.12
12536;BME280;6334;48.696;2.114;2023-02-28T08:47:45;101031.11;;;1.35;60.78
12536;BME280;6334;48.696;2.114;2023-02-28T08:50:16;101029.70;;;1.50;60.35
12536;BME280;6334;48.696;2.114;2023-02-28T08:52:46;101032.44;;;1.38;59.88
12536;BME280;6334;48.696;2.114;2023-02-28T08:55:16;101037.14;;;1.55;60.11
12536;BME280;6334;48.696;2.114;2023-02-28T08:57:47;101033.01;;;1.64;60.30
12536;BME280;6334;48.696;2.114;2023-02-28T09:00:17;101038.74;;;1.66;59.59
12536;BME280;6334;48.696;2.114;2023-02-28T09:02:48;101034.09;;;1.77;59.26
12536;BME280;6334;48.696;2.114;2023-02-28T09:05:19;101025.94;;;1.80;59.15
12536;BME280;6334;48.696;2.114;2023-02-28T09:07:50;101034.33;;;1.83;59.02
12536;BME280;6334;48.696;2.114;2023-02-28T09:10:20;101039.67;;;1.98;58.05
12536;BME280;6334;48.696;2.114;2023-02-28T09:12:51;101029.41;;;1.81;58.30
12536;BME280;6334;48.696;2.114;2023-02-28T09:15:21;101037.88;;;1.94;57.54
12536;BME280;6334;48.696;2.114;2023-02-28T09:17:54;101041.62;;;2.14;57.10
12536;BME280;6334;48.696;2.114;2023-02-28T09:20:24;101042.77;;;2.12;57.16
12536;BME280;6334;48.696;2.114;2023-02-28T09:22:55;101041.19;;;1.89;57.83
12536;BME280;6334;48.696;2.114;2023-02-28T09:25:25;101037.73;;;2.22;55.87
12536;BME280;6334;48.696;2.114;2023-02-28T09:27:55;101038.64;;;2.23;55.29
12536;BME280;6334;48.696;2.114;2023-02-28T09:30:26;101040.14;;;2.27;55.30
12536;BME280;6334;48.696;2.114;2023-02-28T09:32:57;101039.45;;;2.22;55.65
12536;BME280;6334;48.696;2.114;2023-02-28T09:35:27;101034.53;;;2.25;54.80
12536;BME280;6334;48.696;2.114;2023-02-28T09:37:57;101035.42;;;2.33;53.18
12536;BME280;6334;48.696;2.114;2023-02-28T09:40:28;101034.66;;;2.26;54.83
12536;BME280;6334;48.696;2.114;2023-02-28T09:42:58;101029.87;;;2.43;54.45
12536;BME280;6334;48.696;2.114;2023-02-28T09:45:41;101036.66;;;2.49;54.02
12536;BME280;6334;48.696;2.114;2023-02-28T09:48:10;101028.42;;;2.48;52.69
12536;BME280;6334;48.696;2.114;2023-02-28T09:50:43;101024.03;;;2.59;52.33
12536;BME280;6334;48.696;2.114;2023-02-28T09:53:26;101016.70;;;2.58;52.01
12536;BME280;6334;48.696;2.114;2023-02-28T09:55:54;101022.73;;;2.61;50.74
12536;BME280;6334;48.696;2.114;2023-02-28T09:58:32;101019.78;;;2.75;51.68
12536;BME280;6334;48.696;2.114;2023-02-28T10:01:25;101015.88;;;2.79;50.48
12536;BME280;6334;48.696;2.114;2023-02-28T10:06:26;101003.97;;;2.58;50.76
12536;BME280;6334;48.696;2.114;2023-02-28T10:09:03;101012.72;;;2.55;49.47
12536;BME280;6334;48.696;2.114;2023-02-28T10:11:33;101014.29;;;2.50;49.90
12536;BME280;6334;48.696;2.114;2023-02-28T10:14:24;101015.61;;;2.53;50.09
12536;BME280;6334;48.696;2.114;2023-02-28T10:16:53;101015.71;;;2.69;49.91
12536;BME280;6334;48.696;2.114;2023-02-28T10:21:59;101005.05;;;2.87;49.73
12536;BME280;6334;48.696;2.114;2023-02-28T10:24:30;101000.23;;;2.85;49.53
12536;BME280;6334;48.696;2.114;2023-02-28T10:27:00;100992.27;;;3.06;49.92
12536;BME280;6334;48.696;2.114;2023-02-28T10:29:31;100988.11;;;2.89;50.20
12536;BME280;6334;48.696;2.114;2023-02-28T10:32:01;100993.37;;;2.76;50.38
12536;BME280;6334;48.696;2.114;2023-02-28T10:34:31;100993.36;;;2.91;49.32
12536;BME280;6334;48.696;2.114;2023-02-28T10:37:01;100987.59;;;3.04;49.47
12536;BME280;6334;48.696;2.114;2023-02-28T10:39:40;100981.52;;;3.05;50.22
12536;BME280;6334;48.696;2.114;2023-02-28T10:42:21;100985.29;;;2.90;48.55
12536;BME280;6334;48.696;2.114;2023-02-28T10:44:50;100968.91;;;2.75;48.28
12536;BME280;6334;48.696;2.114;2023-02-28T10:47:20;100987.30;;;3.11;49.07
12536;BME280;6334;48.696;2.114;2023-02-28T10:49:50;100960.45;;;2.99;49.67
12536;BME280;6334;48.696;2.114;2023-02-28T10:52:36;100964.01;;;3.05;49.19
12536;BME280;6334;48.696;2.114;2023-02-28T10:55:22;100960.00;;;3.49;49.05
12536;BME280;6334;48.696;2.114;2023-02-28T10:57:50;100957.97;;;3.31;47.82
12536;BME280;6334;48.696;2.114;2023-02-28T11:00:21;100969.55;;;3.51;47.21
12536;BME280;6334;48.696;2.114;2023-02-28T11:02:51;100962.90;;;3.65;47.35
12536;BME280;6334;48.696;2.114;2023-02-28T11:05:34;100954.48;;;3.53;46.90
12536;BME280;6334;48.696;2.114;2023-02-28T11:08:15;100956.92;;;3.74;47.16
12536;BME280;6334;48.696;2.114;2023-02-28T11:10:47;100954.36;;;3.76;48.19
12536;BME280;6334;48.696;2.114;2023-02-28T11:13:18;100959.70;;;3.77;47.34
12536;BME280;6334;48.696;2.114;2023-02-28T11:15:54;100963.79;;;3.83;46.87
12536;BME280;6334;48.696;2.114;2023-02-28T11:18:30;100963.88;;;3.79;46.63
12536;BME280;6334;48.696;2.114;2023-02-28T11:21:00;100954.70;;;3.99;45.00
12536;BME280;6334;48.696;2.114;2023-02-28T11:23:31;100958.83;;;3.69;46.88
12536;BME280;6334;48.696;2.114;2023-02-28T11:26:02;100946.66;;;3.81;45.92
12536;BME280;6334;48.696;2.114;2023-02-28T11:28:39;100953.44;;;4.18;43.90
12536;BME280;6334;48.696;2.114;2023-02-28T11:31:15;100951.95;;;4.24;42.80
12536;BME280;6334;48.696;2.114;2023-02-28T11:33:48;100952.20;;;4.21;41.06
12536;BME280;6334;48.696;2.114;2023-02-28T11:36:28;100942.66;;;4.15;39.76
12536;BME280;6334;48.696;2.114;2023-02-28T11:39:07;100935.42;;;4.30;39.64
12536;BME280;6334;48.696;2.114;2023-02-28T11:47:38;100940.48;;;4.50;40.59
12536;BME280;6334;48.696;2.114;2023-02-28T11:55:26;100942.84;;;4.16;40.00
12536;BME280;6334;48.696;2.114;2023-02-28T12:04:11;100925.22;;;4.30;41.49
12536;BME280;6334;48.696;2.114;2023-02-28T12:07:26;100916.77;;;4.29;41.26
12536;BME280;6334;48.696;2.114;2023-02-28T12:18:13;100906.19;;;3.95;42.29
12536;BME280;6334;48.696;2.114;2023-02-28T12:20:54;100904.87;;;3.90;43.04
12536;BME280;6334;48.696;2.114;2023-02-28T12:26:39;100883.68;;;3.79;42.46
12536;BME280;6334;48.696;2.114;2023-02-28T12:31:52;100881.21;;;4.64;41.54
12536;BME280;6334;48.696;2.114;2023-02-28T12:34:21;100869.82;;;4.60;42.12
12536;BME280;6334;48.696;2.114;2023-02-28T12:36:50;100873.14;;;4.46;41.30
12536;BME280;6334;48.696;2.114;2023-02-28T12:39:23;100866.94;;;4.23;42.20
12536;BME280;6334;48.696;2.114;2023-02-28T12:41:56;100863.42;;;4.27;42.82
12536;BME280;6334;48.696;2.114;2023-02-28T12:44:34;100857.17;;;4.13;43.33
12536;BME280;6334;48.696;2.114;2023-02-28T12:47:04;100858.48;;;4.12;43.32
12536;BME280;6334;48.696;2.114;2023-02-28T12:49:44;100853.25;;;4.19;43.38
12536;BME280;6334;48.696;2.114;2023-02-28T12:52:10;100855.16;;;3.90;43.16
12536;BME280;6334;48.696;2.114;2023-02-28T12:55:03;100858.76;;;3.89;43.24
12536;BME280;6334;48.696;2.114;2023-02-28T12:57:44;100854.63;;;4.15;42.39
12536;BME280;6334;48.696;2.114;2023-02-28T13:00:15;100841.86;;;4.22;41.97
12536;BME280;6334;48.696;2.114;2023-02-28T13:11:45;100839.77;;;3.99;43.10
12536;BME280;6334;48.696;2.114;2023-02-28T13:14:28;100845.92;;;4.11;42.58
12536;BME280;6334;48.696;2.114;2023-02-28T13:19:31;100829.50;;;4.66;41.20
12536;BME280;6334;48.696;2.114;2023-02-28T13:22:00;100826.22;;;4.57;40.15
12536;BME280;6334;48.696;2.114;2023-02-28T13:27:11;100806.77;;;4.98;39.32
12536;BME280;6334;48.696;2.114;2023-02-28T13:29:41;100814.83;;;4.80;39.49
12536;BME280;6334;48.696;2.114;2023-02-28T13:39:54;100803.91;;;4.51;40.86
12536;BME280;6334;48.696;2.114;2023-02-28T13:47:40;100817.42;;;4.28;41.82
12536;BME280;6334;48.696;2.114;2023-02-28T13:58:39;100819.78;;;4.40;41.11
12536;BME280;6334;48.696;2.114;2023-02-28T14:01:35;100805.72;;;4.64;41.18
12536;BME280;6334;48.696;2.114;2023-02-28T14:07:07;100803.38;;;4.53;40.69
12536;BME280;6334;48.696;2.114;2023-02-28T14:09:41;100801.84;;;4.61;41.07
12536;BME280;6334;48.696;2.114;2023-02-28T14:15:01;100799.62;;;4.82;40.18
12536;BME280;6334;48.696;2.114;2023-02-28T14:17:31;100796.82;;;4.89;40.01
12536;BME280;6334;48.696;2.114;2023-02-28T14:20:02;100800.42;;;4.98;38.99
12536;BME280;6334;48.696;2.114;2023-02-28T14:31:06;100796.03;;;4.46;40.02
12536;BME280;6334;48.696;2.114;2023-02-28T14:36:42;100798.00;;;4.58;40.55
12536;BME280;6334;48.696;2.114;2023-02-28T14:39:13;100793.06;;;4.32;40.41
12536;BME280;6334;48.696;2.114;2023-02-28T14:41:42;100802.93;;;4.28;40.27
12536;BME280;6334;48.696;2.114;2023-02-28T14:44:18;100806.77;;;4.12;40.47
12536;BME280;6334;48.696;2.114;2023-02-28T14:46:59;100807.86;;;4.25;39.75
12536;BME280;6334;48.696;2.114;2023-02-28T14:49:20;100809.30;;;4.05;40.10
12536;BME280;6334;48.696;2.114;2023-02-28T14:51:50;100806.18;;;4.37;40.68
12536;BME280;6334;48.696;2.114;2023-02-28T14:54:20;100797.34;;;4.45;38.96
12536;BME280;6334;48.696;2.114;2023-02-28T14:56:50;100789.17;;;4.72;38.90
12536;BME280;6334;48.696;2.114;2023-02-28T14:59:30;100785.99;;;4.70;39.08
12536;BME280;6334;48.696;2.114;2023-02-28T15:02:17;100790.43;;;4.87;39.10
12536;BME280;6334;48.696;2.114;2023-02-28T15:04:43;100795.19;;;5.12;38.86
12536;BME280;6334;48.696;2.114;2023-02-28T15:07:14;100790.89;;;4.93;39.11
12536;BME280;6334;48.696;2.114;2023-02-28T15:09:44;100792.57;;;4.83;39.56
12536;BME280;6334;48.696;2.114;2023-02-28T15:12:14;100781.38;;;4.50;39.77
12536;BME280;6334;48.696;2.114;2023-02-28T15:14:45;100787.24;;;4.43;40.06
12536;BME280;6334;48.696;2.114;2023-02-28T15:17:22;100787.98;;;4.54;40.21
12536;BME280;6334;48.696;2.114;2023-02-28T15:19:46;100784.70;;;4.34;39.37
12536;BME280;6334;48.696;2.114;2023-02-28T15:22:16;100794.75;;;4.47;40.05
12536;BME280;6334;48.696;2.114;2023-02-28T15:24:47;100794.55;;;4.36;39.41
12536;BME280;6334;48.696;2.114;2023-02-28T15:27:29;100801.36;;;4.26;38.96
12536;BME280;6334;48.696;2.114;2023-02-28T15:29:59;100813.65;;;4.32;38.91
12536;BME280;6334;48.696;2.114;2023-02-28T15:32:35;100805.58;;;4.20;37.30